Time;durP1;ratioP1;P1;durP2;ratioP2;P2;SDS_P1;SDS_P2;PMS_P1;PMS_P2;Temp;Humidity;BMP_temperature;BMP_pressure;BME280_temperature;BME280_humidity;BME280_pressure;Samples;Min_cycle;Max_cycle;Signal;HPM_P1;HPM_P2
2022/11/21 00:00:05;;;;;;;2.33;0.93;;;9.30;99.90;;;;;;5092822;28;20076;-80
2022/11/21 00:02:31;;;;;;;2.22;1.20;;;9.30;99.90;;;;;;5091474;28;20020;-79
2022/11/21 00:04:57;;;;;;;3.35;1.30;;;9.30;99.90;;;;;;5093232;28;20028;-79
2022/11/21 00:07:23;;;;;;;2.80;1.20;;;9.20;99.90;;;;;;5092757;28;20027;-79
2022/11/21 00:09:48;;;;;;;1.17;0.70;;;9.20;99.90;;;;;;5092747;28;20024;-80
2022/11/21 00:12:15;;;;;;;1.67;1.20;;;9.20;99.90;;;;;;5092625;28;20141;-79
2022/11/21 00:14:41;;;;;;;1.95;1.27;;;9.10;99.90;;;;;;5092733;28;20024;-79
2022/11/21 00:17:07;;;;;;;2.55;0.80;;;9.10;99.90;;;;;;5091927;28;20035;-79
2022/11/21 00:19:32;;;;;;;1.30;0.90;;;9.10;99.90;;;;;;5092787;28;20103;-79
2022/11/21 00:21:58;;;;;;;2.67;0.93;;;9.10;99.90;;;;;;5092491;28;20489;-79
2022/11/21 00:24:24;;;;;;;0.80;0.80;;;9.10;99.90;;;;;;5092032;28;20047;-79
2022/11/21 00:26:49;;;;;;;1.05;0.95;;;9.10;99.90;;;;;;5082569;28;20524;-79
2022/11/21 00:29:15;;;;;;;2.13;1.15;;;9.10;99.90;;;;;;5072497;28;20017;-79
2022/11/21 00:31:41;;;;;;;2.17;1.20;;;9.00;99.90;;;;;;5072052;28;20547;-79
2022/11/21 00:34:08;;;;;;;0.93;0.88;;;9.10;99.90;;;;;;5072592;28;20032;-80
2022/11/21 00:36:34;;;;;;;1.33;0.98;;;9.10;99.90;;;;;;5072281;28;20028;-79
2022/11/21 00:38:59;;;;;;;1.60;1.05;;;9.00;99.90;;;;;;5072178;28;20123;-79
2022/11/21 00:41:25;;;;;;;2.55;1.08;;;8.90;99.90;;;;;;5079619;28;20118;-79
2022/11/21 00:43:51;;;;;;;5.60;1.65;;;8.90;99.90;;;;;;5112734;28;20008;-79
2022/11/21 00:46:16;;;;;;;2.72;1.05;;;9.00;99.90;;;;;;5112252;28;20529;-79
2022/11/21 00:48:42;;;;;;;3.13;1.25;;;9.00;99.90;;;;;;5112783;28;20517;-79
2022/11/21 00:51:08;;;;;;;1.75;1.10;;;9.00;99.90;;;;;;5094330;28;20040;-79
2022/11/21 00:53:33;;;;;;;3.25;1.00;;;8.90;99.90;;;;;;5092345;28;20024;-79
2022/11/21 00:55:59;;;;;;;1.17;0.88;;;8.90;99.90;;;;;;5091983;28;20413;-79
2022/11/21 00:58:26;;;;;;;2.35;1.25;;;8.90;99.90;;;;;;5092444;28;20039;-79
2022/11/21 01:00:52;;;;;;;1.75;1.13;;;8.90;99.90;;;;;;5091859;28;20030;-79
2022/11/21 01:03:17;;;;;;;2.08;1.10;;;8.80;99.90;;;;;;5090842;28;20111;-79
2022/11/21 01:05:43;;;;;;;1.92;1.00;;;8.80;99.90;;;;;;5092291;28;20150;-79
2022/11/21 01:08:09;;;;;;;1.27;1.02;;;8.80;99.90;;;;;;5091962;28;20065;-79
2022/11/21 01:10:35;;;;;;;2.83;1.35;;;8.90;99.90;;;;;;5090848;28;20031;-79
2022/11/21 01:13:01;;;;;;;0.98;0.98;;;8.80;99.90;;;;;;5092357;28;20478;-80
2022/11/21 01:15:26;;;;;;;1.67;1.08;;;8.80;99.90;;;;;;5091976;28;20111;-79
2022/11/21 01:17:52;;;;;;;2.42;1.50;;;8.90;99.90;;;;;;5091749;28;20052;-79
2022/11/21 01:20:18;;;;;;;1.98;1.40;;;8.90;99.90;;;;;;5092383;28;20031;-79
2022/11/21 01:22:44;;;;;;;2.85;1.20;;;9.00;99.90;;;;;;5091864;28;20477;-79
2022/11/21 01:25:09;;;;;;;2.70;1.13;;;9.00;99.90;;;;;;5091796;28;20044;-79
2022/11/21 01:27:35;;;;;;;2.03;1.30;;;8.90;99.90;;;;;;5075623;28;20470;-79
2022/11/21 01:30:01;;;;;;;2.15;1.25;;;8.90;99.90;;;;;;5075173;28;20024;-79
2022/11/21 01:32:26;;;;;;;2.17;1.40;;;8.90;99.90;;;;;;5075260;28;20025;-79
2022/11/21 01:34:52;;;;;;;2.78;1.45;;;8.90;99.90;;;;;;5075902;28;20439;-79
2022/11/21 01:37:18;;;;;;;2.20;1.50;;;8.90;99.90;;;;;;5075288;28;20386;-79
2022/11/21 01:39:43;;;;;;;2.35;1.40;;;8.90;99.90;;;;;;5074156;28;20505;-79
2022/11/21 01:42:12;;;;;;;2.08;1.48;;;9.00;99.90;;;;;;5096580;28;20481;-79
2022/11/21 01:44:50;;;;;;;1.92;1.45;;;9.00;99.90;;;;;;5114760;28;20027;-79
2022/11/21 01:47:16;;;;;;;1.70;1.20;;;8.90;99.90;;;;;;5115741;28;20042;-79
2022/11/21 01:49:43;;;;;;;1.95;1.20;;;8.90;99.90;;;;;;5109742;28;20482;-79
2022/11/21 01:52:11;;;;;;;2.70;1.92;;;9.00;99.90;;;;;;5095107;28;20070;-79
2022/11/21 01:55:05;;;;;;;2.97;1.30;;;9.00;99.90;;;;;;5095740;28;20031;-79
2022/11/21 01:57:37;;;;;;;1.67;1.55;;;8.90;99.90;;;;;;5089509;28;20047;-79
2022/11/21 02:00:14;;;;;;;1.35;1.15;;;8.90;99.90;;;;;;5094099;28;20524;-79
2022/11/21 02:02:47;;;;;;;3.42;1.55;;;8.80;99.90;;;;;;5095011;28;20505;-79
2022/11/21 02:05:19;;;;;;;2.38;1.55;;;8.90;99.90;;;;;;5093797;28;20028;-79
2022/11/21 02:07:47;;;;;;;2.20;1.52;;;9.00;99.90;;;;;;5095219;28;20020;-80
2022/11/21 02:10:14;;;;;;;1.90;1.30;;;9.00;99.90;;;;;;5095295;28;20039;-79
2022/11/21 02:12:49;;;;;;;5.25;1.90;;;9.00;99.90;;;;;;5094695;28;20032;-79
2022/11/21 02:15:16;;;;;;;2.60;1.60;;;9.00;99.90;;;;;;5093409;28;20180;-79
2022/11/21 02:17:42;;;;;;;2.45;1.40;;;9.00;99.90;;;;;;5093434;28;20039;-79
2022/11/21 02:20:20;;;;;;;2.47;1.60;;;9.10;99.90;;;;;;5094744;28;20028;-79
2022/11/21 02:22:50;;;;;;;2.67;1.50;;;9.10;99.90;;;;;;5094902;28;20031;-79
2022/11/21 02:25:20;;;;;;;3.47;2.00;;;9.10;99.90;;;;;;5094612;28;20051;-79
2022/11/21 02:27:49;;;;;;;2.28;1.67;;;9.10;99.90;;;;;;5077212;28;20078;-79
2022/11/21 02:30:16;;;;;;;2.88;1.42;;;9.10;99.90;;;;;;5074354;28;20052;-79
2022/11/21 02:32:47;;;;;;;2.30;1.75;;;9.10;99.90;;;;;;5074313;28;20012;-79
2022/11/21 02:35:17;;;;;;;2.72;1.50;;;9.20;99.90;;;;;;5074449;28;20035;-79
2022/11/21 02:37:46;;;;;;;2.08;1.50;;;9.10;99.90;;;;;;5072923;28;20039;-79
2022/11/21 02:40:19;;;;;;;2.17;1.40;;;9.10;99.90;;;;;;5073508;28;20038;-79
2022/11/21 02:42:57;;;;;;;1.85;1.45;;;9.10;99.90;;;;;;5105641;28;20024;-79
2022/11/21 02:45:43;;;;;;;3.70;1.77;;;9.00;99.90;;;;;;5114826;28;20016;-79
2022/11/21 02:48:10;;;;;;;1.77;1.40;;;9.00;99.90;;;;;;5114645;28;20110;-79
2022/11/21 02:50:38;;;;;;;2.95;1.80;;;9.00;99.90;;;;;;5100904;28;20023;-79
2022/11/21 02:53:06;;;;;;;1.58;1.42;;;9.00;99.90;;;;;;5094636;28;20020;-79
2022/11/21 02:55:32;;;;;;;2.78;1.98;;;9.00;99.90;;;;;;5094407;28;20062;-80
2022/11/21 02:57:57;;;;;;;1.77;1.48;;;9.00;99.90;;;;;;5094333;28;20029;-79
2022/11/21 03:00:23;;;;;;;2.33;1.67;;;9.00;99.90;;;;;;5094431;28;20025;-79
2022/11/21 03:02:49;;;;;;;1.75;1.52;;;9.00;99.90;;;;;;5092730;28;20556;-79
2022/11/21 03:05:17;;;;;;;3.55;1.73;;;8.90;99.90;;;;;;5094060;28;20045;-79
2022/11/21 03:07:43;;;;;;;1.70;1.60;;;8.90;99.90;;;;;;5093987;28;20087;-79
2022/11/21 03:10:09;;;;;;;1.80;1.60;;;8.80;99.90;;;;;;5094050;28;20012;-79
2022/11/21 03:12:36;;;;;;;2.00;1.40;;;8.80;99.90;;;;;;5093744;28;20069;-79
2022/11/21 03:15:03;;;;;;;3.58;1.70;;;8.80;99.90;;;;;;5093904;28;20114;-79
2022/11/21 03:17:29;;;;;;;1.50;1.27;;;8.90;99.90;;;;;;5093750;28;20028;-79
2022/11/21 03:19:55;;;;;;;2.75;1.90;;;8.90;99.90;;;;;;5093505;28;20035;-79
2022/11/21 03:22:20;;;;;;;2.00;1.70;;;8.90;99.90;;;;;;5093656;28;20173;-79
2022/11/21 03:24:46;;;;;;;1.63;1.42;;;8.90;99.90;;;;;;5093490;28;20117;-79
2022/11/21 03:27:12;;;;;;;1.92;1.40;;;9.00;99.90;;;;;;5080745;28;20039;-79
2022/11/21 03:29:37;;;;;;;1.55;1.20;;;8.90;99.90;;;;;;5073489;28;20028;-80
2022/11/21 03:32:03;;;;;;;2.30;1.42;;;8.90;99.90;;;;;;5073063;28;20040;-79
2022/11/21 03:34:29;;;;;;;2.00;1.50;;;8.90;99.90;;;;;;5073065;28;20052;-79
2022/11/21 03:36:54;;;;;;;1.52;1.42;;;8.90;99.90;;;;;;5071925;28;20035;-79
2022/11/21 03:39:20;;;;;;;2.40;1.33;;;8.90;99.90;;;;;;5073328;28;20059;-79
2022/11/21 03:41:46;;;;;;;2.00;1.40;;;9.00;99.90;;;;;;5087738;28;20476;-79
2022/11/21 03:44:12;;;;;;;1.83;1.30;;;9.00;99.90;;;;;;5113874;28;20485;-79
2022/11/21 03:46:39;;;;;;;2.03;1.35;;;9.00;99.90;;;;;;5112195;28;20015;-79
2022/11/21 03:49:06;;;;;;;2.20;1.42;;;9.00;99.90;;;;;;5110732;28;20051;-79
2022/11/21 03:51:32;;;;;;;3.85;1.27;;;8.90;99.90;;;;;;5093159;28;20028;-79
2022/11/21 03:53:58;;;;;;;1.75;1.35;;;8.80;99.90;;;;;;5093146;28;20031;-79
2022/11/21 03:56:25;;;;;;;2.20;1.65;;;8.90;99.90;;;;;;5093188;28;20408;-80
2022/11/21 03:58:50;;;;;;;1.48;1.20;;;8.90;99.90;;;;;;5091844;28;20071;-79
2022/11/21 04:01:17;;;;;;;2.25;1.23;;;9.00;99.90;;;;;;5091325;28;20508;-79
2022/11/21 04:03:43;;;;;;;1.98;1.48;;;9.00;99.90;;;;;;5091508;28;20023;-79
2022/11/21 04:06:10;;;;;;;1.73;1.23;;;9.00;99.90;;;;;;5092936;28;20035;-79
2022/11/21 04:08:36;;;;;;;1.88;1.38;;;9.00;99.90;;;;;;5092947;28;20020;-79
2022/11/21 04:11:02;;;;;;;2.50;1.23;;;9.00;99.90;;;;;;5093053;28;20023;-79
2022/11/21 04:13:28;;;;;;;1.50;1.17;;;9.00;99.90;;;;;;5092677;28;20239;-79
2022/11/21 04:15:53;;;;;;;3.08;1.33;;;9.10;99.90;;;;;;5092450;28;20028;-79
2022/11/21 04:18:19;;;;;;;1.27;1.10;;;9.10;99.90;;;;;;5092787;28;20469;-79
2022/11/21 04:20:45;;;;;;;2.45;1.42;;;9.10;99.90;;;;;;5092553;28;20024;-79
2022/11/21 04:23:11;;;;;;;1.70;1.30;;;9.10;99.90;;;;;;5092534;28;20027;-79
2022/11/21 04:25:37;;;;;;;1.92;1.05;;;9.10;99.90;;;;;;5091243;28;20578;-79
2022/11/21 04:28:04;;;;;;;1.63;1.30;;;9.10;99.90;;;;;;5071022;28;20578;-79
2022/11/21 04:30:31;;;;;;;1.38;1.00;;;9.10;99.90;;;;;;5072254;28;20520;-79
2022/11/21 04:32:57;;;;;;;1.73;1.23;;;9.10;99.90;;;;;;5072545;28;20074;-79
2022/11/21 04:35:23;;;;;;;2.63;1.30;;;9.10;99.90;;;;;;5072461;28;20024;-79
2022/11/21 04:37:50;;;;;;;1.15;1.05;;;9.10;99.90;;;;;;5072091;28;20074;-79
2022/11/21 04:40:16;;;;;;;0.85;0.80;;;9.20;99.90;;;;;;5072256;28;20060;-79
2022/11/21 04:42:43;;;;;;;2.45;1.23;;;9.10;99.90;;;;;;5102464;28;20103;-79
2022/11/21 04:45:09;;;;;;;1.88;1.02;;;9.20;99.90;;;;;;5112681;28;20027;-79
2022/11/21 04:47:39;;;;;;;1.63;1.08;;;9.10;99.90;;;;;;5112723;28;20055;-79
2022/11/21 04:50:06;;;;;;;1.63;1.00;;;9.10;99.90;;;;;;5103245;28;20021;-79
2022/11/21 04:52:32;;;;;;;1.95;1.17;;;9.10;99.90;;;;;;5090948;28;20043;-79
2022/11/21 04:54:58;;;;;;;1.38;1.10;;;9.20;99.90;;;;;;5092618;28;20081;-79
2022/11/21 04:57:26;;;;;;;1.67;1.13;;;9.20;99.90;;;;;;5092545;28;20024;-79
2022/11/21 04:59:52;;;;;;;1.58;1.08;;;9.10;99.90;;;;;;5092049;28;20032;-80
2022/11/21 05:02:17;;;;;;;2.50;1.20;;;9.20;99.90;;;;;;5090757;28;20081;-80
2022/11/21 05:04:43;;;;;;;0.98;0.88;;;9.20;99.90;;;;;;5095440;28;20036;-80
2022/11/21 05:07:09;;;;;;;1.90;0.98;;;9.10;99.90;;;;;;5096047;28;20120;-81
2022/11/21 05:09:34;;;;;;;2.67;0.98;;;9.10;99.90;;;;;;5096442;28;20055;-81
2022/11/21 05:14:44;;;;;;;1.40;1.00;;;9.10;99.90;;;;;;5096153;28;20039;-81
2022/11/21 05:17:10;;;;;;;2.20;1.20;;;9.10;99.90;;;;;;5095963;28;20028;-81
2022/11/21 05:19:36;;;;;;;2.38;1.25;;;9.10;99.90;;;;;;5095824;28;20024;-81
2022/11/21 05:22:02;;;;;;;1.30;1.20;;;9.10;99.90;;;;;;5095707;28;20370;-82
2022/11/21 05:24:27;;;;;;;1.38;0.85;;;9.10;99.90;;;;;;5095759;28;20058;-82
2022/11/21 05:26:53;;;;;;;3.25;1.30;;;9.10;99.90;;;;;;5085449;28;20086;-82
2022/11/21 05:29:19;;;;;;;2.25;1.10;;;9.20;99.90;;;;;;5075281;28;20516;-82
2022/11/21 05:31:45;;;;;;;2.20;1.00;;;9.10;99.90;;;;;;5075546;28;20016;-82
2022/11/21 05:34:10;;;;;;;1.23;1.00;;;9.10;99.90;;;;;;5075630;28;20039;-82
2022/11/21 05:36:36;;;;;;;2.50;1.00;;;9.10;99.90;;;;;;5075580;28;20103;-82
2022/11/21 05:39:02;;;;;;;1.58;1.00;;;9.10;99.90;;;;;;5075483;28;20067;-82
2022/11/21 05:41:27;;;;;;;3.25;1.33;;;9.10;99.90;;;;;;5085184;28;20032;-82
2022/11/21 05:43:53;;;;;;;1.23;1.08;;;9.10;99.90;;;;;;5114401;28;20437;-82
2022/11/21 05:46:21;;;;;;;1.55;1.00;;;9.10;99.90;;;;;;5116040;28;20011;-82
2022/11/21 05:48:49;;;;;;;2.17;1.33;;;9.10;99.90;;;;;;5115983;28;20023;-82
2022/11/21 05:51:15;;;;;;;2.00;1.08;;;9.10;99.90;;;;;;5096665;28;20020;-83
2022/11/21 05:53:41;;;;;;;2.17;1.02;;;9.10;99.90;;;;;;5095563;28;20028;-82
2022/11/21 05:56:10;;;;;;;1.90;1.15;;;9.10;99.90;;;;;;5095663;28;20103;-82
2022/11/21 05:58:36;;;;;;;2.22;1.15;;;9.10;99.90;;;;;;5095245;28;20070;-83
2022/11/21 06:01:03;;;;;;;3.53;1.30;;;9.10;99.90;;;;;;5095339;28;20497;-82
2022/11/21 06:03:31;;;;;;;1.70;1.02;;;9.10;99.90;;;;;;5095298;28;20028;-82
2022/11/21 06:05:59;;;;;;;1.42;1.25;;;9.20;99.90;;;;;;5095446;28;20057;-82
2022/11/21 06:08:30;;;;;;;1.52;0.95;;;9.20;99.90;;;;;;5095230;28;20470;-82
2022/11/21 06:10:56;;;;;;;1.80;1.10;;;9.10;99.90;;;;;;5095490;28;20024;-82
2022/11/21 06:13:21;;;;;;;4.40;1.50;;;9.10;99.90;;;;;;5094863;28;20020;-82
2022/11/21 06:16:11;;;;;;;3.13;1.20;;;9.10;99.90;;;;;;5092104;28;20539;-82
2022/11/21 06:18:39;;;;;;;1.48;1.00;;;9.10;99.90;;;;;;5095202;28;20020;-83
2022/11/21 06:21:09;;;;;;;3.08;1.08;;;9.10;99.90;;;;;;5095011;28;20021;-83
2022/11/21 06:23:35;;;;;;;3.25;1.40;;;9.10;99.90;;;;;;5094790;28;20023;-83
2022/11/21 06:26:03;;;;;;;1.75;0.90;;;9.10;99.90;;;;;;5091948;28;20036;-83
2022/11/21 06:28:34;;;;;;;1.13;0.70;;;9.10;99.90;;;;;;5089762;28;20514;-83
2022/11/21 06:31:20;;;;;;;2.55;1.00;;;9.20;99.90;;;;;;5089932;28;20490;-83
2022/11/21 06:33:50;;;;;;;4.28;1.50;;;9.20;99.90;;;;;;5073143;28;20051;-83
2022/11/21 06:36:16;;;;;;;1.88;1.10;;;9.20;99.90;;;;;;5074739;28;20099;-83
2022/11/21 06:38:43;;;;;;;4.20;1.10;;;9.20;99.90;;;;;;5074484;28;20021;-83
2022/11/21 06:41:14;;;;;;;2.28;1.10;;;9.20;99.90;;;;;;5078624;28;20054;-82
2022/11/21 06:43:41;;;;;;;1.58;0.98;;;9.20;99.90;;;;;;5115363;28;20039;-83
2022/11/21 06:46:07;;;;;;;2.35;1.23;;;9.10;99.90;;;;;;5114717;28;20036;-83
2022/11/21 06:48:34;;;;;;;1.63;1.02;;;9.20;99.90;;;;;;5115182;28;20492;-83
2022/11/21 06:51:10;;;;;;;2.15;0.82;;;9.20;99.90;;;;;;5097479;28;20028;-83
2022/11/21 06:53:35;;;;;;;1.25;0.80;;;9.20;99.90;;;;;;5094380;28;20512;-84
2022/11/21 06:56:02;;;;;;;1.90;0.98;;;9.30;99.90;;;;;;5094142;28;20032;-83
2022/11/21 06:58:28;;;;;;;2.75;0.82;;;9.20;99.90;;;;;;5094640;28;20024;-84
2022/11/21 07:00:54;;;;;;;2.65;1.17;;;9.30;99.90;;;;;;5092674;28;20062;-84
2022/11/21 07:03:21;;;;;;;3.58;1.10;;;9.30;99.90;;;;;;5093115;28;20055;-83
2022/11/21 07:05:47;;;;;;;2.92;1.15;;;9.20;99.90;;;;;;5094181;28;20016;-84
2022/11/21 07:08:13;;;;;;;1.92;1.02;;;9.20;99.90;;;;;;5094239;28;20019;-83
2022/11/21 07:10:39;;;;;;;1.80;1.00;;;9.20;99.90;;;;;;5093691;28;20028;-84
2022/11/21 07:13:23;;;;;;;2.92;1.13;;;9.20;99.90;;;;;;5093969;28;20016;-83
2022/11/21 07:15:53;;;;;;;3.13;1.13;;;9.20;99.90;;;;;;5093557;28;20034;-83
2022/11/21 07:18:20;;;;;;;2.95;1.00;;;9.20;99.90;;;;;;5093938;28;20024;-84
2022/11/21 07:20:46;;;;;;;2.83;1.38;;;9.20;99.90;;;;;;5093420;28;20035;-84
2022/11/21 07:23:12;;;;;;;1.60;0.90;;;9.20;99.90;;;;;;5093920;28;20020;-84
2022/11/21 07:25:38;;;;;;;2.17;0.80;;;9.20;99.90;;;;;;5093289;28;20498;-84
2022/11/21 07:28:04;;;;;;;3.20;1.08;;;9.20;99.90;;;;;;5071878;28;20055;-84
2022/11/21 07:30:30;;;;;;;2.00;0.82;;;9.20;99.90;;;;;;5073484;28;20039;-84
2022/11/21 07:33:01;;;;;;;1.95;1.35;;;9.30;99.90;;;;;;5072121;28;20473;-84
2022/11/21 07:35:27;;;;;;;1.33;0.77;;;9.30;99.90;;;;;;5073492;28;20023;-84
2022/11/21 07:37:53;;;;;;;3.38;1.20;;;9.30;99.90;;;;;;5073383;28;20078;-84
2022/11/21 07:40:20;;;;;;;2.03;1.10;;;9.30;99.90;;;;;;5072952;28;20478;-84
2022/11/21 07:42:45;;;;;;;2.20;0.68;;;9.30;99.90;;;;;;5103251;28;20028;-84
2022/11/21 07:45:12;;;;;;;1.73;0.80;;;9.30;99.90;;;;;;5112169;28;20031;-84
2022/11/21 07:47:38;;;;;;;4.32;1.20;;;9.30;99.90;;;;;;5113714;28;20020;-84
2022/11/21 07:50:08;;;;;;;1.88;0.88;;;9.20;99.90;;;;;;5104388;28;20378;-85
2022/11/21 07:52:34;;;;;;;1.58;1.15;;;9.30;99.90;;;;;;5093410;28;20094;-85
2022/11/21 07:55:01;;;;;;;5.45;1.00;;;9.30;99.90;;;;;;5093093;28;20032;-85
2022/11/21 07:57:27;;;;;;;2.45;1.00;;;9.20;99.90;;;;;;5093374;28;20024;-85
2022/11/21 07:59:53;;;;;;;1.45;0.73;;;9.30;99.90;;;;;;5093263;28;20027;-84
2022/11/21 08:02:21;;;;;;;2.03;0.88;;;9.30;99.90;;;;;;5093025;28;20512;-84
2022/11/21 08:04:47;;;;;;;1.92;1.05;;;9.30;99.90;;;;;;5093200;28;20016;-84
2022/11/21 08:07:17;;;;;;;2.72;1.08;;;9.30;99.90;;;;;;5092723;28;20393;-84
2022/11/21 08:09:43;;;;;;;4.10;1.00;;;9.30;99.90;;;;;;5092916;28;20029;-85
2022/11/21 08:12:09;;;;;;;2.88;1.30;;;9.30;99.90;;;;;;5092650;28;20031;-86
2022/11/21 08:14:35;;;;;;;3.25;1.20;;;9.30;99.90;;;;;;5092687;28;20021;-85
2022/11/21 08:17:01;;;;;;;3.00;1.40;;;9.30;99.90;;;;;;5092489;28;20036;-84
2022/11/21 08:19:26;;;;;;;5.20;1.52;;;9.30;99.90;;;;;;5092682;28;20515;-84
2022/11/21 08:21:52;;;;;;;2.20;1.30;;;9.20;99.90;;;;;;5091175;28;20442;-85
2022/11/21 08:24:18;;;;;;;4.97;1.58;;;9.20;99.90;;;;;;5092343;28;20044;-85
2022/11/21 08:26:44;;;;;;;2.97;1.13;;;9.30;99.90;;;;;;5083660;28;20029;-85
2022/11/21 08:29:14;;;;;;;5.70;1.55;;;9.30;99.90;;;;;;5071190;28;20048;-85
2022/11/21 08:31:40;;;;;;;4.13;1.50;;;9.30;99.90;;;;;;5072157;28;20482;-86
2022/11/21 08:34:07;;;;;;;4.43;1.52;;;9.30;99.90;;;;;;5088050;28;20025;-85
2022/11/21 08:36:33;;;;;;;3.28;1.30;;;9.30;99.90;;;;;;5072401;28;20028;-85
2022/11/21 08:38:58;;;;;;;4.45;1.48;;;9.30;99.90;;;;;;5070177;28;20032;-86
2022/11/21 08:44:08;;;;;;;2.13;1.30;;;9.30;99.90;;;;;;5113032;28;20042;-85
2022/11/21 08:46:36;;;;;;;2.78;1.38;;;9.30;99.90;;;;;;5112209;28;20023;-85
2022/11/21 08:49:05;;;;;;;1.92;0.90;;;9.30;99.90;;;;;;5110914;28;20529;-84
2022/11/21 08:51:31;;;;;;;3.17;1.33;;;9.30;99.90;;;;;;5092106;28;20035;-85
2022/11/21 08:53:57;;;;;;;1.95;1.05;;;9.30;99.90;;;;;;5092511;28;20024;-84
2022/11/21 08:56:23;;;;;;;5.68;2.38;;;9.20;99.90;;;;;;5092030;28;20538;-84
2022/11/21 08:58:48;;;;;;;3.72;1.55;;;9.30;99.90;;;;;;5092461;28;20031;-83
2022/11/21 09:01:14;;;;;;;3.00;1.40;;;9.40;99.90;;;;;;5091897;28;20542;-85
2022/11/21 09:03:40;;;;;;;3.67;1.38;;;9.40;99.90;;;;;;5092506;28;20020;-85
2022/11/21 09:06:06;;;;;;;2.83;1.45;;;9.40;99.90;;;;;;5090597;28;20062;-84
2022/11/21 09:08:32;;;;;;;2.22;1.17;;;9.40;99.90;;;;;;5092286;28;20496;-84
2022/11/21 09:10:58;;;;;;;4.68;1.50;;;9.40;99.90;;;;;;5092236;28;20033;-85
2022/11/21 09:13:25;;;;;;;2.50;1.27;;;9.30;99.90;;;;;;5090518;28;20556;-84
2022/11/21 09:18:35;;;;;;;3.47;1.52;;;9.10;99.90;;;;;;5092557;28;20027;-83
2022/11/21 09:21:00;;;;;;;3.97;1.63;;;9.20;99.90;;;;;;5091714;28;20028;-84
2022/11/21 09:23:26;;;;;;;4.18;1.60;;;9.20;99.90;;;;;;5092219;28;20020;-84
2022/11/21 09:25:52;;;;;;;4.65;2.15;;;9.30;99.90;;;;;;5090211;28;20051;-84
2022/11/21 09:28:17;;;;;;;3.85;1.70;;;9.30;99.90;;;;;;5070541;28;20044;-84
2022/11/21 09:30:43;;;;;;;3.80;1.90;;;9.40;99.90;;;;;;5071325;28;20103;-83
2022/11/21 09:33:14;;;;;;;3.30;1.40;;;9.40;99.90;;;;;;5071917;28;20509;-84
2022/11/21 09:35:41;;;;;;;5.05;2.00;;;9.40;99.90;;;;;;5070259;28;20053;-84
2022/11/21 09:38:07;;;;;;;4.43;2.00;;;9.40;99.90;;;;;;5071497;28;20107;-85
2022/11/21 09:40:34;;;;;;;6.57;1.60;;;9.40;99.90;;;;;;5071682;28;20096;-84
2022/11/21 09:43:11;;;;;;;3.13;1.30;;;9.50;99.90;;;;;;5107082;28;20077;-85
2022/11/21 09:45:51;;;;;;;2.30;1.55;;;9.30;99.90;;;;;;5112229;28;20055;-85
2022/11/21 09:48:22;;;;;;;4.15;1.60;;;9.30;99.90;;;;;;5110985;28;20023;-84
2022/11/21 09:50:53;;;;;;;6.07;2.47;;;9.30;99.90;;;;;;5099365;28;20073;-85
2022/11/21 09:53:31;;;;;;;5.53;2.67;;;9.30;99.90;;;;;;5095687;28;20032;-84
2022/11/21 09:56:07;;;;;;;3.85;2.03;;;9.30;99.90;;;;;;5095336;28;20024;-84
2022/11/21 09:58:38;;;;;;;3.70;1.95;;;9.40;99.90;;;;;;5095402;28;20016;-84
2022/11/21 10:01:04;;;;;;;4.72;2.35;;;9.50;99.90;;;;;;5095390;28;20052;-84
2022/11/21 10:03:48;;;;;;;5.85;2.60;;;9.40;99.90;;;;;;5094035;28;20486;-84
2022/11/21 10:06:23;;;;;;;4.65;2.25;;;9.30;99.90;;;;;;5095363;28;20020;-84
2022/11/21 10:08:49;;;;;;;4.80;2.30;;;9.50;99.90;;;;;;5095080;28;20036;-84
2022/11/21 10:11:20;;;;;;;2.92;2.17;;;9.50;99.90;;;;;;5095008;28;20028;-85
2022/11/21 10:14:04;;;;;;;;;;;9.50;99.90;;;;;;5095358;28;20028;-84
2022/11/21 10:17:02;;;;;;;6.50;2.50;;;9.50;99.90;;;;;;5094752;28;20440;-83
2022/11/21 10:19:55;;;;;;;8.30;3.55;;;9.50;99.90;;;;;;5095147;28;20030;-84
2022/11/21 10:22:53;;;;;;;5.95;3.20;;;9.50;99.90;;;;;;5095181;28;20028;-85
2022/11/21 10:25:24;;;;;;;4.28;3.25;;;9.50;99.90;;;;;;5094834;28;20055;-85
2022/11/21 10:27:53;;;;;;;;;;;9.60;99.90;;;;;;5075607;28;20028;-85
2022/11/21 10:30:20;;;;;;;6.03;3.20;;;9.60;99.90;;;;;;5073391;28;19976;-84
2022/11/21 10:32:53;;;;;;;5.18;3.03;;;9.60;99.90;;;;;;5074450;28;20116;-86
2022/11/21 10:35:29;;;;;;;6.07;3.50;;;9.60;99.90;;;;;;5074191;28;20029;-85
2022/11/21 10:38:01;;;;;;;4.72;3.00;;;9.70;99.90;;;;;;5074316;28;20029;-85
2022/11/21 10:40:44;;;;;;;6.40;2.97;;;9.70;99.90;;;;;;5074412;28;20509;-85
2022/11/21 10:46:23;;;;;;;7.07;3.17;;;9.80;99.90;;;;;;5114915;28;20115;-85
2022/11/21 10:49:00;;;;;;;6.35;3.35;;;9.80;99.90;;;;;;5114812;28;20110;-85
2022/11/21 10:51:49;;;;;;;5.13;2.60;;;9.80;99.90;;;;;;5074025;28;20486;-85
2022/11/21 10:54:34;;;;;;;4.07;2.35;;;9.90;99.90;;;;;;5074110;28;20032;-85
2022/11/21 10:57:19;;;;;;;5.32;2.70;;;9.90;99.90;;;;;;5074289;28;20104;-85
2022/11/21 11:00:11;;;;;;;7.43;3.60;;;9.90;99.90;;;;;;5074209;28;20109;-85
2022/11/21 11:02:41;;;;;;;6.68;3.53;;;9.90;99.90;;;;;;5010582;28;20046;-85
2022/11/21 11:05:18;;;;;;;5.90;2.90;;;10.00;99.90;;;;;;5012043;28;20585;-85
2022/11/21 11:08:03;;;;;;;6.85;3.38;;;10.00;99.90;;;;;;5011720;28;20107;-85
2022/11/21 11:10:29;;;;;;;6.15;3.13;;;9.90;99.90;;;;;;5011767;28;20120;-85
2022/11/21 11:16:10;;;;;;;5.45;3.08;;;9.90;99.90;;;;;;5011735;28;20120;-86
2022/11/21 11:18:50;;;;;;;5.13;2.90;;;9.90;99.90;;;;;;5011523;28;20077;-85
2022/11/21 11:21:18;;;;;;;4.93;2.95;;;10.10;99.90;;;;;;4994806;28;20065;-85
2022/11/21 11:23:44;;;;;;;3.80;2.45;;;10.20;99.90;;;;;;5011320;28;20030;-85
2022/11/21 11:26:20;;;;;;;5.55;2.55;;;10.30;99.90;;;;;;5011092;28;20076;-86
2022/11/21 11:28:45;;;;;;;3.25;2.42;;;10.40;99.90;;;;;;4995000;28;20021;-85
2022/11/21 11:31:11;;;;;;;3.15;2.03;;;10.50;99.90;;;;;;5010892;28;20117;-86
2022/11/21 11:33:58;;;;;;;3.13;1.75;;;10.50;99.90;;;;;;5011075;28;20058;-85
2022/11/21 11:36:43;;;;;;;3.50;2.17;;;10.50;99.90;;;;;;5010756;28;20056;-86
2022/11/21 11:39:47;;;;;;;3.92;2.03;;;10.60;99.90;;;;;;5035575;28;20064;-86
2022/11/21 11:48:06;;;;;;;4.80;2.42;;;10.80;99.90;;;;;;5113809;28;20074;-86
2022/11/21 11:50:41;;;;;;;3.17;2.40;;;10.90;99.90;;;;;;5098967;28;20024;-85
2022/11/21 11:53:26;;;;;;;4.25;2.40;;;10.90;99.90;;;;;;5093479;28;20028;-85
2022/11/21 11:56:11;;;;;;;7.03;2.83;;;11.10;99.90;;;;;;5093323;28;20061;-85
2022/11/21 11:58:49;;;;;;;4.80;2.58;;;11.10;99.90;;;;;;5093283;28;20024;-85
2022/11/21 12:01:17;;;;;;;6.75;2.88;;;11.20;99.90;;;;;;5091048;28;20554;-85
2022/11/21 12:03:58;;;;;;;6.25;2.47;;;11.10;99.90;;;;;;5091628;28;20093;-85
2022/11/21 12:06:28;;;;;;;;;;;11.10;99.90;;;;;;5093560;28;20047;-84
2022/11/21 12:09:00;;;;;;;5.38;2.85;;;11.10;99.90;;;;;;5093325;28;19908;-85
2022/11/21 12:12:06;;;;;;;3.33;2.88;;;11.20;99.90;;;;;;5091383;28;20110;-85
2022/11/21 12:18:08;;;;;;;4.40;3.30;;;11.20;99.90;;;;;;5093182;28;20112;-85
2022/11/21 12:20:56;;;;;;;4.32;2.70;;;11.20;99.90;;;;;;5092604;28;20028;-85
2022/11/21 12:23:27;;;;;;;3.30;2.25;;;11.30;99.90;;;;;;5092905;28;20123;-85
2022/11/21 12:26:17;;;;;;;3.40;2.63;;;11.30;99.90;;;;;;5090814;28;20228;-85
2022/11/21 12:29:11;;;;;;;4.95;3.03;;;11.30;99.90;;;;;;5072406;28;20024;-85
2022/11/21 12:31:55;;;;;;;8.40;5.90;;;11.40;99.90;;;;;;5072098;28;20051;-85
2022/11/21 12:34:46;;;;;;;6.63;5.43;;;11.40;99.90;;;;;;5072672;28;20039;-86
2022/11/21 12:37:21;;;;;;;7.23;5.10;;;11.40;99.90;;;;;;5072441;28;20021;-86
2022/11/21 12:39:52;;;;;;;7.85;5.80;;;11.50;99.90;;;;;;5070924;28;20115;-86
2022/11/21 12:45:19;;;;;;;7.15;5.80;;;11.60;99.90;;;;;;5112644;28;20031;-86
2022/11/21 12:57:18;;;;;;;3.38;2.72;;;11.80;99.90;;;;;;5092539;28;20133;-85
2022/11/21 12:59:51;;;;;;;4.07;2.67;;;12.00;99.90;;;;;;5092304;28;20095;-86
2022/11/21 13:02:26;;;;;;;3.65;2.80;;;12.10;99.90;;;;;;5091852;28;20290;-85
2022/11/21 13:04:56;;;;;;;5.97;2.47;;;12.10;99.90;;;;;;5091010;28;20050;-85
2022/11/21 13:07:24;;;;;;;4.45;2.58;;;12.20;99.90;;;;;;5092196;28;20017;-86
2022/11/21 13:09:53;;;;;;;8.15;3.45;;;12.30;99.90;;;;;;5092031;28;20099;-85
2022/11/21 13:12:39;;;;;;;7.53;3.35;;;12.50;99.90;;;;;;5090692;28;20108;-85
2022/11/21 13:15:32;;;;;;;6.03;2.50;;;12.60;99.90;;;;;;5092348;28;20032;-85
2022/11/21 13:18:05;;;;;;;4.55;2.60;;;12.60;99.90;;;;;;5091754;28;20035;-85
2022/11/21 13:20:38;;;;;;;5.05;2.42;;;12.60;99.90;;;;;;5092296;28;20032;-86
2022/11/21 13:23:24;;;;;;;6.43;2.40;;;12.60;99.90;;;;;;5092150;28;20126;-85
2022/11/21 13:25:50;;;;;;;7.07;2.42;;;12.60;99.90;;;;;;5093594;28;20078;-85
2022/11/21 13:28:36;;;;;;;4.13;2.30;;;12.70;99.90;;;;;;5075866;28;20060;-86
2022/11/21 13:31:22;;;;;;;8.35;3.50;;;12.70;99.90;;;;;;5075444;28;20047;-85
2022/11/21 13:33:50;;;;;;;73.47;29.55;;;12.60;99.90;;;;;;5090748;28;20510;-85
2022/11/21 13:36:35;;;;;;;73.13;29.63;;;12.60;99.90;;;;;;5075914;28;20024;-86
2022/11/21 13:39:01;;;;;;;38.33;16.75;;;12.60;99.90;;;;;;5075909;28;20103;-85
2022/11/21 13:44:30;;;;;;;20.10;10.77;;;12.50;99.90;;;;;;5116647;28;20035;-86
2022/11/21 13:47:13;;;;;;;22.20;10.07;;;12.50;99.90;;;;;;5114453;28;20031;-85